createdAt,value
2023-07-26T00:02:24.494Z,4.80
2023-07-26T00:07:28.443Z,4.50
2023-07-26T00:12:32.312Z,3.60
2023-07-26T00:17:37.511Z,2.50
2023-07-26T00:22:41.402Z,3.45
2023-07-26T00:27:45.220Z,5.97
2023-07-26T00:32:50.446Z,3.58
2023-07-26T00:37:54.299Z,5.55
2023-07-26T00:42:58.205Z,4.22
2023-07-26T00:48:04.045Z,3.28
2023-07-26T00:53:08.308Z,2.85
2023-07-26T00:58:13.161Z,4.07
2023-07-26T01:03:18.443Z,7.55
2023-07-26T01:08:33.159Z,4.75
2023-07-26T01:13:46.496Z,4.00
2023-07-26T01:18:51.889Z,4.37
2023-07-26T01:23:57.106Z,3.55
2023-07-26T01:29:00.918Z,4.30
2023-07-26T01:34:07.065Z,8.60
2023-07-26T01:39:13.292Z,8.07
2023-07-26T01:44:17.130Z,4.05
2023-07-26T01:49:22.311Z,5.35
2023-07-26T01:54:27.509Z,5.97
2023-07-26T01:59:31.331Z,7.25
2023-07-26T02:04:35.263Z,9.45
2023-07-26T02:09:40.636Z,5.55
2023-07-26T02:14:44.483Z,4.47
2023-07-26T02:19:48.484Z,6.45
2023-07-26T02:24:54.653Z,9.32
2023-07-26T02:29:58.463Z,6.57
2023-07-26T02:35:02.361Z,5.53
2023-07-26T02:40:08.460Z,4.07
2023-07-26T02:45:12.276Z,4.35
2023-07-26T02:50:16.347Z,4.75
2023-07-26T02:55:21.552Z,5.10
2023-07-26T03:00:25.374Z,4.82
2023-07-26T03:05:29.566Z,4.32
2023-07-26T03:10:36.235Z,5.78
2023-07-26T03:15:41.179Z,4.78
2023-07-26T03:20:47.582Z,6.18
2023-07-26T03:25:53.270Z,6.07
2023-07-26T03:30:57.157Z,5.28
2023-07-26T03:36:01.673Z,8.93
2023-07-26T03:41:06.842Z,7.12
2023-07-26T03:46:10.919Z,10.50
2023-07-26T03:51:15.033Z,6.37
2023-07-26T03:56:20.238Z,7.25
2023-07-26T04:01:24.043Z,7.00
2023-07-26T04:06:27.972Z,10.85
2023-07-26T04:11:33.166Z,7.70
2023-07-26T04:16:37.228Z,11.05
2023-07-26T04:21:41.207Z,8.13
2023-07-26T04:26:46.520Z,7.72
2023-07-26T04:31:50.339Z,10.77
2023-07-26T04:36:54.196Z,7.50
2023-07-26T04:41:59.486Z,10.98
2023-07-26T04:47:03.264Z,8.55
2023-07-26T04:52:07.529Z,8.93
2023-07-26T04:57:12.833Z,5.87
2023-07-26T05:02:16.611Z,11.23
2023-07-26T05:07:20.451Z,11.32
2023-07-26T05:12:25.652Z,8.70
2023-07-26T05:17:29.583Z,7.80
2023-07-26T05:22:33.372Z,10.93
2023-07-26T05:27:38.617Z,8.35
2023-07-26T05:32:42.419Z,9.80
2023-07-26T05:37:46.232Z,14.13
2023-07-26T05:42:51.961Z,11.10
2023-07-26T05:47:56.093Z,11.38
2023-07-26T05:53:00.005Z,10.98
2023-07-26T05:58:05.223Z,12.70
2023-07-26T06:03:09.108Z,9.45
2023-07-26T06:08:15.297Z,12.73
2023-07-26T06:13:20.872Z,11.23
2023-07-26T06:18:24.810Z,13.68
2023-07-26T06:23:28.604Z,18.92
2023-07-26T06:28:33.809Z,12.45
2023-07-26T06:33:38.355Z,13.35
2023-07-26T06:38:42.706Z,15.00
2023-07-26T06:43:48.741Z,13.45
2023-07-26T06:48:52.527Z,13.55
2023-07-26T06:53:56.369Z,18.58
2023-07-26T06:59:02.485Z,16.55
2023-07-26T07:04:13.653Z,13.55
2023-07-26T07:09:18.833Z,10.82
2023-07-26T07:14:24.025Z,12.02
2023-07-26T07:19:27.865Z,12.70
2023-07-26T07:24:31.739Z,13.00
2023-07-26T07:29:38.022Z,14.13
2023-07-26T07:39:47.320Z,14.00
2023-07-26T07:44:52.594Z,12.37
2023-07-26T07:49:56.607Z,15.00
2023-07-26T07:55:00.516Z,13.02
2023-07-26T08:00:07.398Z,11.05
2023-07-26T08:05:15.163Z,12.88
2023-07-26T08:10:19.369Z,12.13
2023-07-26T08:15:24.693Z,13.60
2023-07-26T08:20:28.570Z,8.65
2023-07-26T08:25:32.650Z,10.88
2023-07-26T08:30:37.899Z,11.15
2023-07-26T08:35:41.767Z,11.75
2023-07-26T08:40:48.313Z,11.82
2023-07-26T08:45:55.169Z,14.00
2023-07-26T08:50:59.318Z,12.02
2023-07-26T08:56:03.392Z,10.90
2023-07-26T09:01:08.985Z,13.60
2023-07-26T09:06:12.900Z,12.57
2023-07-26T09:11:24.684Z,11.85
2023-07-26T09:16:34.228Z,23.73
2023-07-26T09:21:39.431Z,11.68
2023-07-26T09:26:44.308Z,9.02
2023-07-26T09:31:49.587Z,7.75
2023-07-26T09:36:55.753Z,10.10
2023-07-26T09:42:07.101Z,10.82
2023-07-26T09:47:12.566Z,9.70
2023-07-26T09:52:21.339Z,10.05
2023-07-26T09:57:25.665Z,16.15
2023-07-26T10:02:31.955Z,11.07
2023-07-26T10:07:38.039Z,6.87
2023-07-26T10:12:45.225Z,7.55
2023-07-26T10:17:53.471Z,6.50
2023-07-26T10:23:03.389Z,5.90
2023-07-26T10:28:07.813Z,6.20
2023-07-26T10:33:15.943Z,3.72
2023-07-26T10:43:42.890Z,8.25
2023-07-26T10:48:49.529Z,5.07
2023-07-26T10:53:55.078Z,3.08
2023-07-26T10:59:19.688Z,3.95
2023-07-26T11:04:24.996Z,4.82
2023-07-26T11:09:30.995Z,5.22
2023-07-26T11:14:35.286Z,4.65
2023-07-26T11:19:50.314Z,10.65
2023-07-26T11:24:54.282Z,3.35
2023-07-26T11:30:02.361Z,2.95
2023-07-26T11:35:08.178Z,3.10
2023-07-26T11:40:13.803Z,4.93
2023-07-26T11:45:17.914Z,3.42
2023-07-26T11:50:23.718Z,3.33
2023-07-26T11:55:27.548Z,4.28
2023-07-26T12:00:33.060Z,3.65
2023-07-26T12:05:43.764Z,2.55
2023-07-26T12:10:49.036Z,5.85
2023-07-26T12:15:55.322Z,2.28
2023-07-26T12:21:04.553Z,3.37
2023-07-26T12:26:10.628Z,6.50
2023-07-26T12:31:20.042Z,2.42
2023-07-26T12:36:25.820Z,5.53
2023-07-26T12:41:29.850Z,2.42
2023-07-26T12:46:51.574Z,6.00
2023-07-26T12:52:00.635Z,2.15
2023-07-26T12:57:06.023Z,2.17
2023-07-26T13:02:10.085Z,12.90
2023-07-26T13:07:15.674Z,2.47
2023-07-26T13:12:19.534Z,3.85
2023-07-26T13:17:23.410Z,5.85
2023-07-26T13:22:28.712Z,2.87
2023-07-26T13:27:33.010Z,5.18
2023-07-26T13:32:37.391Z,3.95
2023-07-26T13:37:42.889Z,3.03
2023-07-26T13:42:46.972Z,3.05
2023-07-26T13:47:50.926Z,3.08
2023-07-26T13:52:56.190Z,3.70
2023-07-26T13:58:00.101Z,2.62
2023-07-26T14:03:05.616Z,2.42
2023-07-26T14:08:11.585Z,1.87
2023-07-26T14:13:15.518Z,3.45
2023-07-26T14:18:19.508Z,2.42
2023-07-26T14:23:24.870Z,3.17
2023-07-26T14:28:29.092Z,2.42
2023-07-26T14:33:32.958Z,2.08
2023-07-26T14:38:38.637Z,4.00
2023-07-26T14:43:42.383Z,2.62
2023-07-26T14:48:46.234Z,1.98
2023-07-26T14:53:51.393Z,4.40
2023-07-26T14:58:55.277Z,2.95
2023-07-26T15:04:03.070Z,2.15
2023-07-26T15:09:08.460Z,1.87
2023-07-26T15:14:12.224Z,2.20
2023-07-26T15:19:16.147Z,2.15
2023-07-26T15:24:21.315Z,1.70
2023-07-26T15:29:25.487Z,3.80
2023-07-26T15:34:30.117Z,2.75
2023-07-26T15:39:35.547Z,2.30
2023-07-26T15:44:39.287Z,4.50
2023-07-26T15:49:46.025Z,3.75
2023-07-26T15:54:52.075Z,2.00
2023-07-26T15:59:57.124Z,4.37
2023-07-26T16:05:03.991Z,4.25
2023-07-26T16:10:10.333Z,2.25
2023-07-26T16:20:20.786Z,1.92
2023-07-26T16:25:26.072Z,2.92
2023-07-26T16:30:29.845Z,3.65
2023-07-26T16:35:33.769Z,3.65
2023-07-26T16:40:40.791Z,2.42
2023-07-26T16:50:48.227Z,3.47
2023-07-26T16:55:53.454Z,2.03
2023-07-26T17:00:58.032Z,3.97
2023-07-26T17:06:01.869Z,3.53
2023-07-26T17:11:07.009Z,3.67
2023-07-26T17:16:15.455Z,3.17
2023-07-26T17:21:19.602Z,2.55
2023-07-26T17:26:26.172Z,5.10
2023-07-26T17:31:30.537Z,2.87
2023-07-26T17:36:34.575Z,5.00
2023-07-26T17:41:40.013Z,11.40
2023-07-26T17:46:43.819Z,3.00
2023-07-26T17:51:47.689Z,3.50
2023-07-26T17:56:52.873Z,4.37
2023-07-26T18:01:56.626Z,3.25
2023-07-26T18:07:00.668Z,3.67
2023-07-26T18:12:06.801Z,3.03
2023-07-26T18:17:10.593Z,3.67
2023-07-26T18:22:14.811Z,3.97
2023-07-26T18:27:20.059Z,2.28
2023-07-26T18:32:23.805Z,2.80
2023-07-26T18:37:27.658Z,2.75
2023-07-26T18:42:32.775Z,2.00
2023-07-26T18:47:36.581Z,3.78
2023-07-26T18:52:40.347Z,6.60
2023-07-26T18:57:47.298Z,2.47
2023-07-26T19:02:52.515Z,2.70
2023-07-26T19:07:56.334Z,3.08
2023-07-26T19:13:01.447Z,6.97
2023-07-26T19:18:05.523Z,5.50
2023-07-26T19:23:09.359Z,5.00
2023-07-26T19:28:14.441Z,2.67
2023-07-26T19:33:18.184Z,3.47
2023-07-26T19:38:21.987Z,3.12
2023-07-26T19:43:27.126Z,5.75
2023-07-26T19:48:30.936Z,4.47
2023-07-26T19:53:34.688Z,4.43
2023-07-26T19:58:39.840Z,3.70
2023-07-26T20:03:43.649Z,3.70
2023-07-26T20:08:47.438Z,3.58
2023-07-26T20:13:52.652Z,4.82
2023-07-26T20:18:56.442Z,3.30
2023-07-26T20:24:00.199Z,5.80
2023-07-26T20:29:05.343Z,3.70
2023-07-26T20:34:09.104Z,7.05
2023-07-26T20:39:12.874Z,5.68
2023-07-26T20:44:18.120Z,3.75
2023-07-26T20:49:21.903Z,5.10
2023-07-26T20:54:25.702Z,4.05
2023-07-26T20:59:31.972Z,6.65
2023-07-26T21:04:36.181Z,6.97
2023-07-26T21:09:39.958Z,5.62
2023-07-26T21:14:45.619Z,6.12
2023-07-26T21:19:49.626Z,7.43
2023-07-26T21:24:53.665Z,5.62
2023-07-26T21:29:58.913Z,5.43
2023-07-26T21:35:02.725Z,6.37
2023-07-26T21:40:08.311Z,4.78
2023-07-26T21:45:14.133Z,7.37
2023-07-26T21:50:17.998Z,4.97
2023-07-26T21:55:21.802Z,5.18
2023-07-26T22:00:26.962Z,7.07
2023-07-26T22:05:30.732Z,7.15
2023-07-26T22:10:36.081Z,5.70
2023-07-26T22:15:41.282Z,7.57
2023-07-26T22:26:11.355Z,6.20
2023-07-26T22:31:19.370Z,5.15
2023-07-26T22:36:23.199Z,4.97
2023-07-26T22:41:26.976Z,6.32
2023-07-26T22:46:32.690Z,4.95
2023-07-26T22:51:36.910Z,5.20
2023-07-26T22:56:43.636Z,4.85
2023-07-26T23:01:48.775Z,3.33
2023-07-26T23:06:52.617Z,3.83
2023-07-26T23:11:56.375Z,5.75
2023-07-26T23:17:01.552Z,7.22
2023-07-26T23:22:07.172Z,6.70
2023-07-26T23:27:10.926Z,5.85
2023-07-26T23:32:16.229Z,5.65
2023-07-26T23:37:20.037Z,8.27
2023-07-26T23:42:23.813Z,7.78
2023-07-26T23:47:28.983Z,9.25
2023-07-26T23:52:32.773Z,8.35
2023-07-26T23:57:36.550Z,5.05
